Time;durP1;ratioP1;P1;durP2;ratioP2;P2;SDS_P1;SDS_P2;PMS_P1;PMS_P2;Temp;Humidity;BMP_temperature;BMP_pressure;BME280_temperature;BME280_humidity;BME280_pressure;Samples;Min_cycle;Max_cycle;Signal;HPM_P1;HPM_P2
2023/08/20 00:00:25;;;;;;;;;1.00;1.00;;;;;22.98;57.56;101323.66;6213566;22;45437;-79
2023/08/20 00:03:02;;;;;;;;;1.75;1.75;;;;;23.00;57.34;101325.22;6211665;22;45322;-77
2023/08/20 00:05:28;;;;;;;;;3.00;1.00;;;;;22.91;57.13;101316.09;6211661;22;45397;-80
2023/08/20 00:07:54;;;;;;;;;2.25;2.25;;;;;22.98;57.59;101323.66;6212778;22;46209;-80
2023/08/20 00:10:19;;;;;;;;;4.00;2.75;;;;;22.91;57.50;101313.41;6213234;22;45255;-79
2023/08/20 00:12:44;;;;;;;;;1.00;1.00;;;;;22.89;57.74;101301.84;6213157;22;45503;-78
2023/08/20 00:15:10;;;;;;;;;1.50;1.50;;;;;22.99;57.77;101322.66;6213101;22;45241;-78
2023/08/20 00:17:40;;;;;;;;;1.75;1.00;;;;;22.97;57.78;101321.97;6213103;22;45250;-79
2023/08/20 00:20:16;;;;;;;;;1.00;1.00;;;;;22.93;57.52;101316.84;6212848;22;45466;-77
2023/08/20 00:22:44;;;;;;;;;2.75;2.00;;;;;22.86;57.79;101318.41;6213324;22;45293;-79
2023/08/20 00:25:11;;;;;;;;;2.50;1.75;;;;;22.78;57.90;101312.84;6213002;22;45189;-79
2023/08/20 00:27:36;;;;;;;;;2.50;2.50;;;;;22.69;57.75;101307.47;6212910;22;46018;-80
2023/08/20 00:30:03;;;;;;;;;4.25;2.00;;;;;22.71;58.24;101319.88;6211349;22;45201;-79
2023/08/20 00:32:29;;;;;;;;;2.75;1.50;;;;;22.45;58.58;101278.97;6213679;22;45184;-79
2023/08/20 00:34:54;;;;;;;;;2.00;2.00;;;;;22.64;58.35;101326.88;6213301;22;45595;-79
2023/08/20 00:37:20;;;;;;;;;3.00;3.00;;;;;22.51;58.77;101316.34;6212299;22;46637;-79
2023/08/20 00:39:45;;;;;;;;;4.00;2.25;;;;;22.33;58.59;101297.25;6212389;22;45442;-80
2023/08/20 00:42:10;;;;;;;;;3.50;2.00;;;;;22.53;59.05;101337.91;6213394;22;45782;-79
2023/08/20 00:44:36;;;;;;;;;2.75;2.50;;;;;22.44;59.08;101319.78;6213649;22;45439;-79
2023/08/20 00:47:03;;;;;;;;;2.25;2.25;;;;;22.31;59.11;101312.81;6213044;22;46053;-78
2023/08/20 00:49:30;;;;;;;;;1.75;1.75;;;;;22.37;59.56;101330.34;6213293;22;45386;-81
2023/08/20 00:51:56;;;;;;;;;4.00;2.00;;;;;22.28;59.17;101312.25;6212520;22;45180;-78
2023/08/20 00:54:22;;;;;;;;;4.00;2.25;;;;;22.26;59.49;101308.81;6213379;22;45425;-79
2023/08/20 00:56:49;;;;;;;;;2.50;2.50;;;;;22.32;59.65;101330.78;6212019;22;45682;-78
2023/08/20 00:59:15;;;;;;;;;5.50;2.00;;;;;22.38;59.32;101340.19;6212806;22;45465;-79
2023/08/20 01:01:40;;;;;;;;;4.00;2.25;;;;;22.35;59.60;101335.06;6211158;22;45476;-78
2023/08/20 01:04:06;;;;;;;;;3.00;3.00;;;;;22.24;59.71;101319.78;6211335;22;45453;-77
2023/08/20 01:06:53;;;;;;;;;3.00;3.00;;;;;22.31;59.98;101334.50;6212755;22;45361;-79
2023/08/20 01:09:52;;;;;;;;;3.00;2.25;;;;;22.31;59.89;101329.06;6210981;22;45358;-77
2023/08/20 01:12:19;;;;;;;;;3.00;3.00;;;;;22.27;60.00;101341.22;6213216;22;45172;-78
2023/08/20 01:14:45;;;;;;;;;4.00;3.00;;;;;22.20;60.10;101336.50;6212702;22;45707;-78
2023/08/20 01:17:10;;;;;;;;;4.25;3.00;;;;;22.01;60.17;101316.50;6212322;22;45902;-78
2023/08/20 01:19:36;;;;;;;;;4.00;4.00;;;;;22.02;60.52;101325.50;6211322;22;45396;-77
2023/08/20 01:22:25;;;;;;;;;2.25;2.25;;;;;22.14;60.87;101343.34;6213609;22;45244;-79
2023/08/20 01:25:07;;;;;;;;;4.25;3.25;;;;;22.12;61.00;101339.91;6213487;22;45283;-80
2023/08/20 01:28:00;;;;;;;;;5.25;3.25;;;;;22.08;60.71;101338.50;6212743;22;46535;-79
2023/08/20 01:30:26;;;;;;;;;5.00;3.00;;;;;21.96;61.24;101323.34;6212506;22;45383;-79
2023/08/20 01:32:53;;;;;;;;;2.25;2.25;;;;;21.95;61.24;101329.75;6212849;22;45291;-78
2023/08/20 01:35:19;;;;;;;;;5.50;3.25;;;;;22.04;61.17;101347.88;6211469;22;45280;-79
2023/08/20 01:37:45;;;;;;;;;6.25;2.50;;;;;21.98;61.26;101343.00;6210488;22;46489;-78
2023/08/20 01:40:11;;;;;;;;;3.00;3.00;;;;;21.96;61.34;101347.72;6212419;22;45207;-79
2023/08/20 01:42:40;;;;;;;;;5.75;3.00;;;;;21.96;61.20;101350.41;6213584;22;45204;-79
2023/08/20 01:45:06;;;;;;;;;1.75;1.75;;;;;21.89;61.59;101341.16;6213174;22;45339;-78
2023/08/20 01:47:33;;;;;;;;;4.50;3.00;;;;;21.95;61.57;101356.84;6212501;22;45358;-79
2023/08/20 01:49:58;;;;;;;;;2.50;2.50;;;;;21.95;61.99;101354.13;6210858;22;45430;-77
2023/08/20 01:52:24;;;;;;;;;2.75;2.00;;;;;21.78;61.83;101312.34;6212786;22;45434;-80
2023/08/20 01:54:49;;;;;;;;;2.00;2.00;;;;;21.84;61.80;101336.16;6212599;22;45477;-79
2023/08/20 01:57:15;;;;;;;;;2.00;1.75;;;;;21.75;61.85;101321.63;6210252;22;46140;-77
2023/08/20 01:59:40;;;;;;;;;2.00;2.00;;;;;21.89;61.91;101350.16;6210731;22;45332;-77
2023/08/20 02:02:06;;;;;;;;;4.00;3.00;;;;;21.74;62.02;101330.72;6213024;22;45181;-78
2023/08/20 02:04:32;;;;;;;;;1.50;1.50;;;;;21.85;62.35;101342.41;6212476;22;45208;-80
2023/08/20 02:06:57;;;;;;;;;3.00;3.00;;;;;21.82;62.60;101348.13;6212264;22;45472;-78
2023/08/20 02:09:24;;;;;;;;;3.75;2.50;;;;;21.79;62.41;101343.84;6212618;22;45327;-79
2023/08/20 02:11:49;;;;;;;;;4.00;2.75;;;;;21.64;62.09;101318.19;6212772;22;45197;-80
2023/08/20 02:14:15;;;;;;;;;4.00;3.00;;;;;21.64;62.43;101319.03;6212932;22;45448;-78
2023/08/20 02:16:40;;;;;;;;;5.00;3.00;;;;;21.60;62.82;101324.84;6210094;22;46409;-78
2023/08/20 02:19:06;;;;;;;;;1.25;1.25;;;;;21.65;62.56;101342.41;6212679;22;45295;-77
2023/08/20 02:21:31;;;;;;;;;4.67;4.67;;;;;21.48;63.09;101329.53;6212480;22;45378;-79
2023/08/20 02:23:57;;;;;;;;;4.00;3.00;;;;;21.62;62.89;101352.66;6212998;22;45449;-78
2023/08/20 02:26:23;;;;;;;;;4.00;3.25;;;;;21.54;63.40;101339.81;6210508;22;45810;-78
2023/08/20 02:28:48;;;;;;;;;2.00;2.00;;;;;21.66;63.00;101363.06;6212110;22;45392;-76
2023/08/20 02:31:13;;;;;;;;;4.75;2.75;;;;;21.47;63.33;101335.94;6212718;22;45251;-76
2023/08/20 02:33:39;;;;;;;;;0.00;0.00;;;;;21.47;63.57;101344.91;6211481;22;45451;-79
2023/08/20 02:36:04;;;;;;;;;3.00;3.00;;;;;21.57;63.39;101360.31;6212134;22;45321;-77
2023/08/20 02:38:30;;;;;;;;;3.25;1.75;;;;;21.34;63.84;101322.66;6211375;22;45342;-78
2023/08/20 02:40:55;;;;;;;;;2.50;2.50;;;;;21.44;64.03;101339.78;6212284;22;45555;-79
2023/08/20 02:43:21;;;;;;;;;4.25;2.50;;;;;21.51;64.02;101358.19;6212394;22;45160;-78
2023/08/20 02:45:46;;;;;;;;;3.00;2.00;;;;;21.30;63.80;101326.63;6212117;22;45402;-77
2023/08/20 02:48:13;;;;;;;;;2.50;2.50;;;;;21.46;63.93;101342.34;6212300;22;45291;-77
2023/08/20 02:50:39;;;;;;;;;4.00;4.00;;;;;21.44;64.11;101347.03;6212739;22;45278;-78
2023/08/20 02:53:04;;;;;;;;;1.00;1.00;;;;;21.43;64.37;101350.75;6212784;22;45585;-79
2023/08/20 02:55:31;;;;;;;;;2.00;2.00;;;;;21.38;64.19;101339.50;6212242;22;46202;-78
2023/08/20 02:57:56;;;;;;;;;2.00;2.00;;;;;21.31;64.52;101338.31;6210124;22;45584;-77
2023/08/20 03:00:22;;;;;;;;;4.00;1.00;;;;;21.29;64.27;101337.59;6212464;22;45412;-79
2023/08/20 03:02:47;;;;;;;;;2.75;2.00;;;;;21.31;64.41;101341.00;6211854;22;45240;-77
2023/08/20 03:05:12;;;;;;;;;2.67;2.67;;;;;21.36;64.52;101346.88;6210236;22;48072;-78
2023/08/20 03:07:38;;;;;;;;;1.50;1.50;;;;;21.21;64.55;101336.38;6212615;22;45426;-78
2023/08/20 03:10:04;;;;;;;;;3.00;3.00;;;;;21.03;64.73;101302.00;6212205;22;45257;-78
2023/08/20 03:12:29;;;;;;;;;1.50;1.50;;;;;21.14;64.77;101332.53;6212428;22;45468;-79
2023/08/20 03:14:55;;;;;;;;;2.25;0.75;;;;;21.20;65.39;101337.38;6212980;22;45322;-79
2023/08/20 03:17:21;;;;;;;;;3.25;2.25;;;;;21.03;65.05;101315.53;6211338;22;45238;-78
2023/08/20 03:20:06;;;;;;;;;1.67;1.67;;;;;21.04;65.24;101309.13;6213501;22;45255;-77
2023/08/20 03:22:32;;;;;;;;;2.75;1.25;;;;;21.13;65.39;101330.81;6213999;22;45211;-78
2023/08/20 03:24:57;;;;;;;;;1.25;1.25;;;;;21.05;65.28;101316.25;6213169;22;46235;-77
2023/08/20 03:27:23;;;;;;;;;4.33;3.00;;;;;21.04;65.27;101322.66;6213512;22;45237;-77
2023/08/20 03:29:48;;;;;;;;;4.00;2.50;;;;;21.11;64.99;101330.09;6213479;22;45262;-78
2023/08/20 03:32:14;;;;;;;;;4.25;2.00;;;;;21.16;65.23;101341.34;6213643;22;45386;-77
2023/08/20 03:34:39;;;;;;;;;3.00;1.00;;;;;21.07;65.45;101331.34;6213378;22;45560;-77
2023/08/20 03:37:05;;;;;;;;;3.00;3.00;;;;;21.04;65.53;101339.75;6213495;22;45270;-78
2023/08/20 03:39:31;;;;;;;;;5.33;3.00;;;;;21.02;65.72;101336.31;6212985;22;45089;-76
2023/08/20 03:41:57;;;;;;;;;2.25;2.25;;;;;21.02;65.86;101333.63;6211759;22;45423;-79
2023/08/20 03:44:22;;;;;;;;;4.50;3.00;;;;;21.02;65.73;101339.03;6210979;22;46750;-79
2023/08/20 03:46:48;;;;;;;;;4.00;2.00;;;;;20.88;65.58;101315.06;6213156;22;45359;-78
2023/08/20 03:49:13;;;;;;;;;4.00;3.00;;;;;20.97;65.82;101335.03;6211699;22;45576;-81
2023/08/20 03:51:39;;;;;;;;;2.00;2.00;;;;;20.74;66.10;101301.88;6211731;22;45362;-80
2023/08/20 03:54:04;;;;;;;;;5.67;3.00;;;;;20.94;65.86;101341.53;6213297;22;45709;-82
2023/08/20 03:56:29;;;;;;;;;5.00;3.00;;;;;20.78;66.09;101316.84;6211275;22;45292;-81
2023/08/20 03:58:55;;;;;;;;;2.00;2.00;;;;;20.96;65.85;101354.91;6212971;22;45307;-79
2023/08/20 04:01:21;;;;;;;;;3.00;2.00;;;;;20.84;66.14;101341.50;6213092;22;45150;-80
2023/08/20 04:03:47;;;;;;;;;5.25;3.00;;;;;20.94;66.34;101365.00;6212564;22;46030;-78
2023/08/20 04:06:13;;;;;;;;;4.33;3.00;;;;;20.85;66.40;101347.78;6213692;22;45230;-79
2023/08/20 04:08:38;;;;;;;;;2.00;2.00;;;;;20.94;66.44;101359.59;6213389;22;45204;-79
2023/08/20 04:11:04;;;;;;;;;2.00;2.00;;;;;20.86;66.36;101344.06;6213647;22;45165;-79
2023/08/20 04:13:29;;;;;;;;;4.00;4.00;;;;;21.01;65.90;101364.34;6212390;22;45781;-79
2023/08/20 04:15:55;;;;;;;;;3.00;3.00;;;;;20.85;66.00;101327.00;6213122;22;45359;-78
2023/08/20 04:18:20;;;;;;;;;3.50;3.00;;;;;21.05;66.05;101364.94;6213150;22;45442;-77
2023/08/20 04:20:46;;;;;;;;;4.33;3.67;;;;;21.00;66.06;101361.78;6213875;22;45338;-78
2023/08/20 04:23:11;;;;;;;;;3.00;3.00;;;;;20.95;66.34;101355.91;6213703;22;45371;-79
2023/08/20 04:25:36;;;;;;;;;2.00;2.00;;;;;20.97;66.30;101373.72;6212077;22;45347;-80
2023/08/20 04:28:02;;;;;;;;;3.00;3.00;;;;;20.90;66.29;101369.84;6213410;22;45320;-78
2023/08/20 04:30:27;;;;;;;;;3.00;3.00;;;;;21.00;66.25;101373.47;6212814;22;45347;-78
2023/08/20 04:32:53;;;;;;;;;3.33;3.33;;;;;20.77;66.29;101329.50;6212481;22;46065;-78
2023/08/20 04:35:18;;;;;;;;;4.00;4.00;;;;;20.93;66.21;101361.44;6212732;22;45382;-78
2023/08/20 04:37:43;;;;;;;;;4.00;3.00;;;;;20.88;66.01;101355.59;6213555;22;45442;-80
2023/08/20 04:40:09;;;;;;;;;3.00;3.00;;;;;20.96;66.28;101361.19;6213292;22;45492;-78
2023/08/20 04:42:35;;;;;;;;;5.00;4.00;;;;;20.80;66.38;101333.78;6212955;22;45386;-80
2023/08/20 04:45:00;;;;;;;;;2.33;2.33;;;;;20.66;66.62;101315.19;6212683;22;45322;-79
2023/08/20 04:47:25;;;;;;;;;6.00;2.67;;;;;20.67;66.53;101328.56;6213269;22;45579;-78
2023/08/20 04:49:51;;;;;;;;;3.67;1.67;;;;;20.95;66.47;101375.69;6211454;22;45233;-79
2023/08/20 04:52:16;;;;;;;;;2.67;2.67;;;;;20.86;66.82;101360.28;6213352;22;45437;-80
2023/08/20 04:54:41;;;;;;;;;6.33;3.00;;;;;20.86;67.03;101381.91;6213038;22;45197;-78
2023/08/20 04:57:07;;;;;;;;;4.67;4.00;;;;;20.83;67.04;101388.47;6213095;22;45269;-79
2023/08/20 04:59:32;;;;;;;;;5.25;3.25;;;;;20.68;67.25;101361.88;6212600;22;45240;-78
2023/08/20 05:01:58;;;;;;;;;2.00;2.00;;;;;20.73;66.77;101359.66;6212045;22;47676;-79
2023/08/20 05:04:23;;;;;;;;;4.67;3.33;;;;;20.86;67.08;101390.88;6212260;22;45283;-79
2023/08/20 05:06:48;;;;;;;;;4.33;3.33;;;;;20.82;66.73;101381.31;6213243;22;45275;-77
2023/08/20 05:09:15;;;;;;;;;1.75;1.75;;;;;20.87;66.80;101389.03;6213725;22;45201;-80
2023/08/20 05:11:40;;;;;;;;;2.75;2.75;;;;;20.76;66.91;101371.03;6212795;22;45397;-79
2023/08/20 05:14:06;;;;;;;;;6.67;3.67;;;;;20.84;66.96;101382.06;6212282;22;45391;-80
2023/08/20 05:16:31;;;;;;;;;3.33;3.00;;;;;20.81;66.99;101384.16;6212944;22;45400;-84
2023/08/20 05:18:57;;;;;;;;;8.33;4.33;;;;;20.82;66.98;101381.31;6213889;22;45460;-82
2023/08/20 05:21:22;;;;;;;;;2.33;2.33;;;;;20.91;67.06;101387.78;6212869;22;46070;-81
2023/08/20 05:23:47;;;;;;;;;2.33;2.33;;;;;20.75;66.76;101355.81;6213254;22;45340;-83
2023/08/20 05:26:13;;;;;;;;;3.33;3.33;;;;;21.06;66.59;101391.84;6213119;22;45299;-82
2023/08/20 05:28:38;;;;;;;;;4.67;2.67;;;;;20.91;66.48;101358.03;6213453;22;45287;-81
2023/08/20 05:31:03;;;;;;;;;6.00;5.00;;;;;20.99;66.31;101387.97;6213295;22;45569;-80
2023/08/20 05:33:29;;;;;;;;;3.33;3.33;;;;;20.98;66.33;101380.84;6210615;22;45192;-78
2023/08/20 05:35:55;;;;;;;;;7.00;4.67;;;;;21.02;66.43;101386.84;6210694;22;45691;-79
2023/08/20 05:38:20;;;;;;;;;4.33;4.33;;;;;21.03;66.22;101370.47;6212865;22;45350;-78
2023/08/20 05:40:51;;;;;;;;;3.67;3.67;;;;;21.14;66.00;101369.53;6213305;22;45269;-81
2023/08/20 05:43:17;;;;;;;;;3.67;3.67;;;;;21.07;65.46;101349.41;6212909;22;45365;-80
2023/08/20 05:45:42;;;;;;;;;2.67;2.33;;;;;21.35;65.33;101383.03;6210679;22;45301;-82
2023/08/20 05:48:08;;;;;;;;;3.67;3.67;;;;;21.30;64.95;101360.94;6211636;22;45386;-81
2023/08/20 05:50:38;;;;;;;;;3.67;3.00;;;;;21.21;64.68;101333.69;6212723;22;45365;-81
2023/08/20 05:53:04;;;;;;;;;2.00;2.00;;;;;21.72;64.44;101411.22;6212934;22;45267;-79
2023/08/20 05:55:42;;;;;;;;;;;;;;;;;;;;;
2023/08/20 05:58:08;;;;;;;;;5.50;3.25;;;;;21.60;64.16;101366.31;6211866;22;64661;-81
2023/08/20 06:00:42;;;;;;;;;8.33;4.33;;;;;21.74;64.13;101382.16;6212196;22;46146;-81
2023/08/20 06:03:07;;;;;;;;;3.00;3.00;;;;;21.80;63.98;101386.19;6210809;22;45629;-80
2023/08/20 06:05:36;;;;;;;;;5.67;4.67;;;;;22.01;63.59;101418.59;6211057;22;45443;-78
2023/08/20 06:08:12;;;;;;;;;4.33;3.33;;;;;21.82;63.51;101386.03;6213152;22;45617;-80
2023/08/20 06:10:37;;;;;;;;;5.50;3.00;;;;;21.68;63.26;101342.13;6212479;22;45377;-81
2023/08/20 06:13:03;;;;;;;;;3.75;2.50;;;;;22.06;63.13;101397.38;6210847;22;45398;-80
2023/08/20 06:15:28;;;;;;;;;3.00;3.00;;;;;21.99;63.19;101363.66;6210962;22;45360;-81
2023/08/20 06:17:57;;;;;;;;;7.00;5.75;;;;;21.87;63.31;101348.53;6213176;22;45379;-80
2023/08/20 06:20:30;;;;;;;;;5.75;3.50;;;;;22.13;62.77;101387.66;6212813;22;45367;-82
2023/08/20 06:22:55;;;;;;;;;4.00;4.00;;;;;22.48;62.14;101426.91;6212580;22;45291;-78
2023/08/20 06:25:20;;;;;;;;;3.50;3.50;;;;;22.27;61.86;101381.00;6210511;22;45321;-79
2023/08/20 06:27:46;;;;;;;;;3.00;3.00;;;;;22.25;62.08;101354.00;6213025;22;45379;-77
2023/08/20 06:30:15;;;;;;;;;6.25;6.25;;;;;22.48;61.84;101389.81;6212620;22;46530;-79
2023/08/20 06:32:40;;;;;;;;;4.00;2.75;;;;;22.56;61.83;101387.25;6212191;22;45270;-76
2023/08/20 06:35:06;;;;;;;;;4.75;3.50;;;;;22.83;61.26;101421.78;6212689;22;45551;-78
2023/08/20 06:37:35;;;;;;;;;4.50;3.25;;;;;22.98;61.30;101418.63;6212726;22;45541;-79
2023/08/20 06:40:03;;;;;;;;;4.00;4.00;;;;;23.12;61.17;101437.13;6210755;22;45566;-80
2023/08/20 06:42:32;;;;;;;;;3.00;2.25;;;;;22.80;60.72;101375.09;6210604;22;45428;-79
2023/08/20 06:44:57;;;;;;;;;4.50;2.25;;;;;22.96;60.47;101399.78;6211114;22;45395;-78
2023/08/20 06:47:25;;;;;;;;;4.00;3.25;;;;;22.93;60.72;101379.22;6212454;22;45534;-81
2023/08/20 06:49:51;;;;;;;;;5.00;5.00;;;;;23.06;60.40;101386.19;6211246;22;45263;-79
2023/08/20 06:52:16;;;;;;;;;3.00;3.00;;;;;23.34;59.97;101401.50;6210385;22;45388;-81
2023/08/20 06:54:42;;;;;;;;;4.50;4.00;;;;;23.70;59.35;101415.22;6211845;22;45374;-82
2023/08/20 06:57:08;;;;;;;;;5.00;5.00;;;;;23.92;59.15;101431.09;6212323;22;45524;-76
2023/08/20 06:59:34;;;;;;;;;5.50;5.50;;;;;24.36;57.81;101431.28;6209876;22;46440;-77
2023/08/20 07:02:04;;;;;;;;;5.00;4.00;;;;;24.42;57.33;101407.03;6212275;22;45389;-78
2023/08/20 07:04:31;;;;;;;;;4.50;3.50;;;;;24.47;57.12;101436.47;6210954;22;45716;-78
2023/08/20 07:06:58;;;;;;;;;6.50;3.50;;;;;24.27;57.51;101413.16;6211465;22;45632;-78
2023/08/20 07:09:24;;;;;;;;;5.00;5.00;;;;;24.07;57.85;101390.69;6236486;22;47236;-78
2023/08/20 07:11:50;;;;;;;;;6.75;4.00;;;;;24.28;57.79;101431.16;6212568;22;45380;-80
2023/08/20 07:14:15;;;;;;;;;4.50;4.50;;;;;24.21;58.19;101420.03;6212878;22;45331;-79
2023/08/20 07:16:41;;;;;;;;;4.50;4.00;;;;;23.99;58.58;101377.88;6210902;22;45503;-76
2023/08/20 07:19:07;;;;;;;;;5.00;3.75;;;;;24.26;58.50;101422.31;6212336;22;45326;-76
2023/08/20 07:21:32;;;;;;;;;3.50;3.00;;;;;24.33;58.10;101417.97;6212225;22;45252;-77
2023/08/20 07:23:57;;;;;;;;;4.25;4.25;;;;;24.42;58.42;101409.75;6212634;22;45224;-75
2023/08/20 07:26:23;;;;;;;;;6.00;4.50;;;;;24.46;57.98;101413.00;6238123;22;45274;-76
2023/08/20 07:28:57;;;;;;;;;6.00;6.00;;;;;24.66;57.58;101427.28;6211587;22;46138;-79
2023/08/20 07:31:28;;;;;;;;;4.25;4.25;;;;;24.71;57.88;101424.94;6212406;22;45199;-81
2023/08/20 07:33:55;;;;;;;;;4.00;4.00;;;;;24.98;57.16;101441.13;6213152;22;45345;-83
2023/08/20 07:36:22;;;;;;;;;4.00;4.00;;;;;24.95;57.92;101435.16;6210716;22;45420;-87
2023/08/20 07:38:51;;;;;;;;;5.50;5.00;;;;;24.92;58.49;101446.38;6210379;22;47016;-83
2023/08/20 07:41:19;;;;;;;;;5.75;5.75;;;;;24.86;58.38;101449.72;6216910;22;45366;-84
2023/08/20 07:43:49;;;;;;;;;4.75;4.75;;;;;24.25;59.19;101363.53;6209428;22;45335;-87
2023/08/20 07:46:15;;;;;;;;;8.25;4.50;;;;;24.60;59.67;101417.88;6214737;22;45241;-81
2023/08/20 07:48:41;;;;;;;;;4.75;4.75;;;;;24.84;58.82;101443.59;6212652;22;46181;-83
2023/08/20 07:51:11;;;;;;;;;4.60;4.60;;;;;24.87;59.42;101440.53;6214072;22;45716;-86
2023/08/20 07:53:40;;;;;;;;;4.60;3.80;;;;;24.77;59.42;101420.75;6213955;22;45359;-85
2023/08/20 07:56:05;;;;;;;;;3.75;3.75;;;;;24.86;60.19;101447.84;6213704;22;45513;-88
2023/08/20 07:58:31;;;;;;;;;8.25;5.00;;;;;24.61;60.41;101403.31;6218359;22;46915;-88
2023/08/20 08:00:57;;;;;;;;;4.50;4.00;;;;;24.71;60.61;101428.53;6221685;22;45430;-89
2023/08/20 08:03:26;;;;;;;;;6.00;6.00;;;;;24.88;60.27;101437.69;6221819;22;45239;-83
2023/08/20 08:05:53;;;;;;;;;4.75;4.75;;;;;24.68;60.79;101396.19;6219960;22;45348;-89
2023/08/20 08:08:21;;;;;;;;;3.50;3.50;;;;;24.73;60.90;101392.16;6219117;22;47965;-84
2023/08/20 08:10:47;;;;;;;;;2.40;2.40;;;;;25.03;61.08;101448.88;6226873;22;45207;-81
2023/08/20 08:13:13;;;;;;;;;3.75;3.75;;;;;24.90;61.09;101404.88;6218089;22;45322;-85
2023/08/20 08:15:39;;;;;;;;;6.00;5.00;;;;;24.79;60.86;101380.66;6229185;22;44844;-85
2023/08/20 08:18:06;;;;;;;;;5.00;3.75;;;;;24.93;60.73;101401.81;6224928;22;44998;-85
2023/08/20 08:20:32;;;;;;;;;4.00;3.60;;;;;25.04;61.09;101417.94;6215532;22;45334;-87
2023/08/20 08:22:58;;;;;;;;;8.75;5.75;;;;;25.22;60.90;101450.53;6216033;22;45284;-87
2023/08/20 08:25:23;;;;;;;;;4.50;4.50;;;;;25.15;60.47;101433.16;6214343;22;45378;-84
2023/08/20 08:27:48;;;;;;;;;5.00;5.00;;;;;25.15;60.05;101411.38;6213276;22;45378;-82
2023/08/20 08:30:19;;;;;;;;;4.75;4.25;;;;;25.37;60.71;101446.19;6211591;22;45335;-85
2023/08/20 08:32:45;;;;;;;;;6.50;6.50;;;;;25.53;59.91;101465.38;6211274;22;45909;-83
2023/08/20 08:35:10;;;;;;;;;5.00;5.00;;;;;25.35;59.89;101431.03;6213200;22;45221;-84
2023/08/20 08:37:39;;;;;;;;;7.00;6.25;;;;;25.25;60.08;101415.66;6211288;22;45593;-84
2023/08/20 08:40:06;;;;;;;;;7.40;6.00;;;;;25.25;59.66;101410.22;6213349;22;45325;-84
2023/08/20 08:42:33;;;;;;;;;6.80;5.40;;;;;25.69;59.95;101477.38;6213374;22;45281;-83
2023/08/20 08:45:00;;;;;;;;;8.00;7.00;;;;;25.70;59.14;101477.22;6211074;22;45830;-83
2023/08/20 08:47:29;;;;;;;;;4.00;4.00;;;;;25.39;59.66;101421.50;6212347;22;45392;-83
2023/08/20 08:49:56;;;;;;;;;4.60;4.60;;;;;25.30;59.61;101396.13;6210233;22;45343;-84
2023/08/20 08:52:26;;;;;;;;;3.60;3.60;;;;;25.76;59.35;101473.81;6211211;22;45264;-84
2023/08/20 08:54:52;;;;;;;;;5.75;4.75;;;;;25.85;59.60;101472.84;6212702;22;45432;-84
2023/08/20 08:57:18;;;;;;;;;5.00;4.00;;;;;25.80;59.07;101449.84;6211663;22;47885;-82
2023/08/20 08:59:52;;;;;;;;;6.25;4.75;;;;;25.76;58.55;101430.22;6215842;22;45295;-84
2023/08/20 09:02:23;;;;;;;;;4.00;4.00;;;;;25.72;58.83;101415.25;6214761;22;45692;-85
2023/08/20 09:05:02;;;;;;;;;9.25;5.00;;;;;26.14;58.47;101463.41;6212103;22;45430;-85
2023/08/20 09:07:31;;;;;;;;;5.50;5.50;;;;;25.98;58.56;101425.22;6212340;22;47692;-85
2023/08/20 09:10:02;;;;;;;;;5.00;5.00;;;;;26.08;57.99;101429.50;6215508;22;45366;-86
2023/08/20 09:12:28;;;;;;;;;5.25;5.25;;;;;25.95;57.98;101406.47;6214610;22;45312;-85
2023/08/20 09:15:03;;;;;;;;;3.75;3.75;;;;;26.25;57.79;101444.00;6215591;22;45504;-84
2023/08/20 09:17:32;;;;;;;;;4.00;4.00;;;;;26.34;57.78;101444.88;6213954;22;47194;-87
2023/08/20 09:20:00;;;;;;;;;2.60;2.60;;;;;26.29;57.71;101430.88;6213556;22;46233;-87
2023/08/20 09:22:27;;;;;;;;;9.60;5.40;;;;;26.25;57.45;101424.94;6215843;22;45407;-88
2023/08/20 09:24:56;;;;;;;;;6.00;4.75;;;;;26.00;57.48;101372.22;6213412;22;45624;-84
2023/08/20 09:27:25;;;;;;;;;7.00;5.50;;;;;26.35;56.98;101403.81;6214889;22;45507;-85
2023/08/20 09:29:55;;;;;;;;;6.00;4.20;;;;;26.70;56.45;101429.09;6213637;22;45429;-88
2023/08/20 09:32:30;;;;;;;;;4.20;4.20;;;;;26.69;55.87;101403.69;6214784;22;45233;-85
2023/08/20 09:34:56;;;;;;;;;5.00;5.00;;;;;26.73;55.27;101401.47;6214802;22;45396;-88
2023/08/20 09:37:23;;;;;;;;;6.75;3.25;;;;;27.03;55.00;101429.94;6215649;22;45268;-88
2023/08/20 09:39:49;;;;;;;;;4.00;4.00;;;;;27.02;54.83;101390.03;6212995;22;45337;-87
2023/08/20 09:42:15;;;;;;;;;3.50;3.50;;;;;27.35;53.70;101406.34;6215034;22;45279;-83
2023/08/20 09:44:49;;;;;;;;;4.50;4.50;;;;;27.37;53.64;101409.75;6212090;22;45257;-84
2023/08/20 09:47:16;;;;;;;;;4.60;4.60;;;;;27.54;53.47;101433.22;6211466;22;45985;-84
2023/08/20 09:49:47;;;;;;;;;5.60;5.60;;;;;27.55;53.10;101441.25;6212871;22;45394;-86
2023/08/20 09:52:38;;;;;;;;;5.80;5.40;;;;;27.52;53.36;101417.03;6214181;22;45409;-86
2023/08/20 09:55:13;;;;;;;;;2.60;2.60;;;;;27.60;53.55;101436.09;6213716;22;45545;-86
2023/08/20 09:57:40;;;;;;;;;5.80;5.80;;;;;27.56;53.23;101437.47;6215899;22;46269;-91
2023/08/20 10:00:12;;;;;;;;;3.00;3.00;;;;;27.53;53.76;101435.13;6214745;22;44659;-85
2023/08/20 10:02:38;;;;;;;;;6.00;5.00;;;;;27.51;53.26;101428.97;6215095;22;45221;-87
2023/08/20 10:05:10;;;;;;;;;6.20;3.20;;;;;27.52;54.19;101430.69;6218523;22;45224;-87
2023/08/20 10:07:37;;;;;;;;;5.40;4.60;;;;;27.52;53.42;101419.75;6216229;22;47058;-85
2023/08/20 10:10:08;;;;;;;;;5.20;4.80;;;;;27.63;53.37;101421.25;6215081;22;45300;-86
2023/08/20 10:12:35;;;;;;;;;5.20;5.20;;;;;27.73;53.04;101437.44;6213065;22;45409;-83
2023/08/20 10:15:02;;;;;;;;;4.25;4.25;;;;;27.79;53.24;101421.19;6211676;22;45395;-82
2023/08/20 10:17:32;;;;;;;;;6.80;4.40;;;;;27.77;52.65;101427.88;6212623;22;45565;-84
2023/08/20 10:19:59;;;;;;;;;6.20;4.40;;;;;27.40;52.58;101391.09;6214272;22;45306;-86
2023/08/20 10:22:41;;;;;;;;;5.60;4.40;;;;;27.58;53.13;101405.38;6182898;22;45677;-85
2023/08/20 10:25:25;;;;;;;;;5.60;3.80;;;;;27.73;52.46;101423.78;6183032;22;45423;-83
2023/08/20 10:27:51;;;;;;;;;6.80;5.60;;;;;27.77;52.86;101417.81;6180803;23;48092;-83
2023/08/20 10:30:20;;;;;;;;;6.40;4.80;;;;;27.83;51.85;101417.06;6182685;22;45184;-83
2023/08/20 10:32:54;;;;;;;;;4.00;4.00;;;;;27.78;52.40;101400.38;6182152;22;45260;-84
2023/08/20 10:35:27;;;;;;;;;3.00;3.00;;;;;27.91;52.70;101418.91;6182201;22;45493;-83
2023/08/20 10:38:05;;;;;;;;;2.40;2.40;;;;;27.90;51.52;101417.22;6181718;23;45360;-83
2023/08/20 10:40:56;;;;;;;;;6.00;4.60;;;;;27.87;52.14;101414.84;6181062;23;45385;-82
2023/08/20 10:43:29;;;;;;;;;5.40;4.00;;;;;27.84;52.26;101412.44;6180926;22;45357;-83
2023/08/20 10:46:17;;;;;;;;;3.20;3.20;;;;;27.93;51.84;101408.66;6182931;22;45444;-83
2023/08/20 10:48:49;;;;;;;;;7.80;5.00;;;;;28.14;51.96;101414.34;6181651;22;45437;-77
2023/08/20 10:51:17;;;;;;;;;6.60;5.20;;;;;28.20;51.25;101413.59;6180193;23;45416;-80
2023/08/20 10:54:01;;;;;;;;;6.40;6.40;;;;;28.23;50.82;101411.53;6180515;23;45384;-82
2023/08/20 10:56:54;;;;;;;;;5.20;5.20;;;;;28.36;51.07;101417.28;6181209;23;45134;-83
2023/08/20 10:59:26;;;;;;;;;6.00;5.20;;;;;28.47;51.25;101414.97;6181583;23;47165;-82
2023/08/20 11:01:54;;;;;;;;;5.40;5.00;;;;;28.63;49.96;101397.56;6180371;23;45344;-81
2023/08/20 11:04:22;;;;;;;;;7.20;4.60;;;;;28.65;50.52;101409.22;6181755;23;45219;-83
2023/08/20 11:06:54;;;;;;;;;5.80;5.40;;;;;28.64;50.26;101402.00;6182615;22;45535;-80
2023/08/20 11:09:21;;;;;;;;;4.60;4.60;;;;;28.74;49.93;101415.44;6181810;22;46510;-80
2023/08/20 11:11:46;;;;;;;;;5.20;5.20;;;;;28.67;50.62;101415.34;6181469;23;45200;-79
2023/08/20 11:14:16;;;;;;;;;6.25;5.75;;;;;28.88;50.54;101390.00;6181087;22;45397;-80
2023/08/20 11:16:46;;;;;;;;;5.00;5.00;;;;;29.33;49.97;101386.28;6180131;23;45213;-80
2023/08/20 11:19:12;;;;;;;;;5.00;4.00;;;;;29.86;48.47;101394.38;6181000;22;46017;-78
2023/08/20 11:21:39;;;;;;;;;5.60;4.20;;;;;30.11;47.38;101371.06;6182368;22;45402;-81
2023/08/20 11:24:06;;;;;;;;;4.20;4.00;;;;;30.44;46.01;101389.72;6182623;22;45296;-83
2023/08/20 11:26:32;;;;;;;;;5.80;5.80;;;;;30.55;46.21;101386.44;6182047;22;45263;-83
2023/08/20 11:28:58;;;;;;;;;6.40;4.80;;;;;31.18;45.27;101401.13;6181422;23;45555;-82